Main page
METAR-TAF:

METAR-TAF

Airports :

Oberpfaffenhofen, Germany

latitude: 48-05N, longitude: 011-17E, elevation: 600 m

Current weather observation

The report was made 25 minutes ago, at 10:20 UTC
Wind 4 kt from the South/Southwest, varying between South and West/Southwest
Temperature 0°C
Humidity 100%
Pressure 1019 hPa
Visibility 10 km or more
no clouds below 1500 m and no cumulonimbus

METAR: EDMO 061020Z 21004KT 180V250 CAVOK 00/M00 Q1019

Time: 11:45 (10:45 UTC)

Forecast

The report was made 2 hours and 45 minutes ago, at 08:00 UTC
Forecast valid from 06 at 09 UTC to 06 at 18 UTC
Wind 4 kt from the South/Southwest
Visibility 10 km or more
no clouds below 1500 m and no cumulonimbus
Becoming
from 06 at 09 UTC to 06 at 11 UTC
Wind 6 kt from the West

TAF: EDMO 060800Z 0609/0618 20004KT CAVOK BECMG 0609/0611 26006KT

Weather observations and forecasts of more than 4000 airports (METAR and TAF reports).

The available stations are represented by yellow and red dots on the map.

Hover mouse over dot to see the name of the station.

Then click to see weather observations and forecasts.

To change the map : click on the green buttons with a black cross to zoom in, on the green button with a dash to zoom out, or on the green arrows for adjacent maps.


METAR-TAF: